createdAt,value
2022-11-13T00:02:38.657Z,5.79
2022-11-13T00:05:24.030Z,5.94
2022-11-13T00:08:09.585Z,5.91
2022-11-13T00:11:07.439Z,5.82
2022-11-13T00:13:53.025Z,5.95
2022-11-13T00:16:38.271Z,5.97
2022-11-13T00:19:23.452Z,5.96
2022-11-13T00:22:08.859Z,5.95
2022-11-13T00:24:54.556Z,5.94
2022-11-13T00:27:39.788Z,5.90
2022-11-13T00:30:25.482Z,5.94
2022-11-13T00:33:10.645Z,5.89
2022-11-13T00:36:05.297Z,5.91
2022-11-13T00:38:51.687Z,5.83
2022-11-13T00:41:37.757Z,5.89
2022-11-13T00:44:23.287Z,5.97
2022-11-13T00:47:08.967Z,5.98
2022-11-13T00:49:53.964Z,5.88
2022-11-13T00:52:39.741Z,5.93
2022-11-13T00:55:25.134Z,5.94
2022-11-13T00:58:14.140Z,5.93
2022-11-13T01:01:08.688Z,5.95
2022-11-13T01:03:54.220Z,5.90
2022-11-13T01:06:39.580Z,5.85
2022-11-13T01:09:25.128Z,5.83
2022-11-13T01:12:10.627Z,5.81
2022-11-13T01:14:56.235Z,5.84
2022-11-13T01:17:41.566Z,5.85
2022-11-13T01:20:26.924Z,5.76
2022-11-13T01:23:12.585Z,5.85
2022-11-13T01:26:15.509Z,5.73
2022-11-13T01:29:01.084Z,5.68
2022-11-13T01:31:46.496Z,5.77
2022-11-13T01:34:31.902Z,5.62
2022-11-13T01:37:17.428Z,5.64
2022-11-13T01:40:02.874Z,5.47
2022-11-13T01:42:48.818Z,5.45
2022-11-13T01:46:22.181Z,5.48
2022-11-13T01:49:10.344Z,5.57
2022-11-13T01:52:03.481Z,5.46
2022-11-13T01:54:53.006Z,5.44
2022-11-13T01:57:41.947Z,5.53
2022-11-13T02:00:27.209Z,5.53
2022-11-13T02:03:12.640Z,5.52
2022-11-13T02:05:58.388Z,5.57
2022-11-13T02:08:44.211Z,5.47
2022-11-13T02:11:29.692Z,5.58
2022-11-13T02:14:15.508Z,5.49
2022-11-13T02:17:04.879Z,5.44
2022-11-13T02:19:54.534Z,5.53
2022-11-13T02:22:45.346Z,5.62
2022-11-13T02:25:32.517Z,5.49
2022-11-13T02:28:18.575Z,5.53
2022-11-13T02:31:13.001Z,5.44
2022-11-13T02:33:58.852Z,5.33
2022-11-13T02:36:44.287Z,5.48
2022-11-13T02:39:29.760Z,5.32
2022-11-13T02:42:15.634Z,5.28
2022-11-13T02:45:01.442Z,5.38
2022-11-13T02:47:46.871Z,5.27
2022-11-13T02:50:33.115Z,5.30
2022-11-13T02:53:18.399Z,5.10
2022-11-13T02:56:03.748Z,5.01
2022-11-13T02:58:49.002Z,5.08
2022-11-13T03:01:34.594Z,5.13
2022-11-13T03:04:20.300Z,5.05
2022-11-13T03:07:05.692Z,5.04
2022-11-13T03:09:51.149Z,5.17
2022-11-13T03:12:37.131Z,5.12
2022-11-13T03:15:22.975Z,4.93
2022-11-13T03:18:09.261Z,4.92
2022-11-13T03:20:54.884Z,4.96
2022-11-13T03:23:42.092Z,4.95
2022-11-13T03:26:30.151Z,4.82
2022-11-13T03:29:15.532Z,4.88
2022-11-13T03:32:03.063Z,4.78
2022-11-13T03:34:49.000Z,4.73
2022-11-13T03:37:34.702Z,4.72
2022-11-13T03:40:20.654Z,4.74
2022-11-13T03:43:06.293Z,4.72
2022-11-13T03:45:52.217Z,4.77
2022-11-13T03:48:38.187Z,4.89
2022-11-13T03:51:23.648Z,4.93
2022-11-13T03:54:08.890Z,4.86
2022-11-13T03:56:54.224Z,4.83
2022-11-13T03:59:39.658Z,4.75
2022-11-13T04:02:25.172Z,4.58
2022-11-13T04:05:10.739Z,4.35
2022-11-13T04:07:56.093Z,4.25
2022-11-13T04:10:41.524Z,4.32
2022-11-13T04:13:28.472Z,4.15
2022-11-13T04:16:14.040Z,4.11
2022-11-13T04:18:59.321Z,4.12
2022-11-13T04:21:44.496Z,4.13
2022-11-13T04:24:30.000Z,3.94
2022-11-13T04:27:15.458Z,3.89
2022-11-13T04:30:00.824Z,3.92
2022-11-13T04:32:46.540Z,3.83
2022-11-13T04:35:31.910Z,3.92
2022-11-13T04:38:17.546Z,3.85
2022-11-13T04:41:21.461Z,3.82
2022-11-13T04:44:07.156Z,3.81
2022-11-13T04:46:53.106Z,3.73
2022-11-13T04:49:38.415Z,3.77
2022-11-13T04:52:24.316Z,3.75
2022-11-13T04:55:10.238Z,3.76
2022-11-13T04:57:55.642Z,3.67
2022-11-13T05:00:40.950Z,3.56
2022-11-13T05:03:26.524Z,3.63
2022-11-13T05:06:12.503Z,3.65
2022-11-13T05:08:57.973Z,3.51
2022-11-13T05:11:43.448Z,3.55
2022-11-13T05:14:28.690Z,3.59
2022-11-13T05:17:14.427Z,3.44
2022-11-13T05:19:59.956Z,3.46
2022-11-13T05:22:45.719Z,3.32
2022-11-13T05:25:31.471Z,3.36
2022-11-13T05:28:17.170Z,3.19
2022-11-13T05:31:08.446Z,3.19
2022-11-13T05:33:54.352Z,3.23
2022-11-13T05:36:40.039Z,3.11
2022-11-13T05:39:25.485Z,3.25
2022-11-13T05:42:11.035Z,3.21
2022-11-13T05:44:57.163Z,3.32
2022-11-13T05:47:42.383Z,3.36
2022-11-13T05:50:27.943Z,3.20
2022-11-13T05:53:13.691Z,3.27
2022-11-13T05:56:24.543Z,3.20
2022-11-13T05:59:10.547Z,3.10
2022-11-13T06:01:55.975Z,3.30
2022-11-13T06:04:41.597Z,3.15
2022-11-13T06:07:26.884Z,3.14
2022-11-13T06:10:13.272Z,3.21
2022-11-13T06:12:58.789Z,3.14
2022-11-13T06:15:44.809Z,3.04
2022-11-13T06:18:30.601Z,3.00
2022-11-13T06:21:24.213Z,2.91
2022-11-13T06:24:12.229Z,2.99
2022-11-13T06:26:57.816Z,3.01
2022-11-13T06:29:43.402Z,3.06
2022-11-13T06:32:29.183Z,2.90
2022-11-13T06:35:14.409Z,2.96
2022-11-13T06:37:59.987Z,2.98
2022-11-13T06:40:45.710Z,2.98
2022-11-13T06:43:32.191Z,2.92
2022-11-13T06:46:25.735Z,2.85
2022-11-13T06:49:11.619Z,2.85
2022-11-13T06:51:57.053Z,2.92
2022-11-13T06:54:42.739Z,2.84
2022-11-13T06:57:27.917Z,2.72
2022-11-13T07:00:14.582Z,2.77
2022-11-13T07:03:00.345Z,2.78
2022-11-13T07:05:46.200Z,2.91
2022-11-13T07:08:32.058Z,2.84
2022-11-13T07:11:20.709Z,2.85
2022-11-13T07:14:06.277Z,2.87
2022-11-13T07:17:08.772Z,2.87
2022-11-13T07:19:54.795Z,2.83
2022-11-13T07:22:40.406Z,2.89
2022-11-13T07:25:26.445Z,2.94
2022-11-13T07:28:12.234Z,2.91
2022-11-13T07:30:58.943Z,3.09
2022-11-13T07:33:44.504Z,3.11
2022-11-13T07:36:29.953Z,3.00
2022-11-13T07:39:15.713Z,2.96
2022-11-13T07:42:00.721Z,3.14
2022-11-13T07:44:54.508Z,3.14
2022-11-13T07:47:40.805Z,3.12
2022-11-13T07:50:33.176Z,3.19
2022-11-13T07:53:19.694Z,3.21
2022-11-13T07:56:05.435Z,3.25
2022-11-13T07:58:50.681Z,3.26
2022-11-13T08:01:36.110Z,3.24
2022-11-13T08:04:21.532Z,3.43
2022-11-13T08:07:06.651Z,3.40
2022-11-13T08:09:54.197Z,3.48
2022-11-13T08:12:40.269Z,3.38
2022-11-13T08:15:30.669Z,3.40
2022-11-13T08:18:15.918Z,3.33
2022-11-13T08:21:03.150Z,3.34
2022-11-13T08:23:50.274Z,3.43
2022-11-13T08:26:38.356Z,3.38
2022-11-13T08:29:25.018Z,3.45
2022-11-13T08:32:10.197Z,3.49
2022-11-13T08:34:55.936Z,3.59
2022-11-13T08:37:41.331Z,3.62
2022-11-13T08:40:27.140Z,3.53
2022-11-13T08:43:13.005Z,3.63
2022-11-13T08:45:58.551Z,3.63
2022-11-13T08:48:43.837Z,3.67
2022-11-13T08:51:28.933Z,3.66
2022-11-13T08:54:14.188Z,3.65
2022-11-13T08:57:03.392Z,3.60
2022-11-13T08:59:51.089Z,3.64
2022-11-13T09:02:35.881Z,3.65
2022-11-13T09:05:21.081Z,3.65
2022-11-13T09:08:06.458Z,3.69
2022-11-13T09:10:51.452Z,3.68
2022-11-13T09:13:39.936Z,3.70
2022-11-13T09:16:29.203Z,3.73
2022-11-13T09:19:14.307Z,3.83
2022-11-13T09:22:00.219Z,3.96
2022-11-13T09:24:45.167Z,4.14
2022-11-13T09:27:30.097Z,4.33
2022-11-13T09:30:15.899Z,4.53
2022-11-13T09:33:01.486Z,4.74
2022-11-13T09:35:46.682Z,4.90
2022-11-13T09:38:32.177Z,5.04
2022-11-13T09:41:21.668Z,5.15
2022-11-13T09:44:15.304Z,5.24
2022-11-13T09:47:12.314Z,5.33
2022-11-13T09:50:04.862Z,5.44
2022-11-13T09:52:51.863Z,5.55
2022-11-13T09:55:44.848Z,5.63
2022-11-13T09:58:50.100Z,5.77
2022-11-13T10:01:47.480Z,5.83
2022-11-13T10:04:43.131Z,5.92
2022-11-13T10:07:39.239Z,5.98
2022-11-13T10:10:54.876Z,6.06
2022-11-13T10:13:44.695Z,6.18
2022-11-13T10:16:42.899Z,6.28
2022-11-13T10:19:36.455Z,6.33
2022-11-13T10:22:32.936Z,6.42
2022-11-13T10:25:26.070Z,6.47
2022-11-13T10:28:48.292Z,6.55
2022-11-13T10:31:22.831Z,6.61
2022-11-13T10:34:07.854Z,6.70
2022-11-13T10:37:24.127Z,6.82
2022-11-13T10:40:09.103Z,6.90
2022-11-13T10:42:54.450Z,6.97
2022-11-13T10:45:40.437Z,7.03
2022-11-13T10:48:30.242Z,7.09
2022-11-13T10:51:36.801Z,7.11
2022-11-13T10:54:28.932Z,7.19
2022-11-13T10:57:35.675Z,7.27
2022-11-13T11:00:31.648Z,7.34
2022-11-13T11:03:21.232Z,7.42
2022-11-13T11:06:06.106Z,7.52
2022-11-13T11:08:51.151Z,7.61
2022-11-13T11:11:54.821Z,7.77
2022-11-13T11:14:45.399Z,8.01
2022-11-13T11:17:49.356Z,8.26
2022-11-13T11:20:46.523Z,8.37
2022-11-13T11:23:56.426Z,8.45
2022-11-13T11:26:49.428Z,8.58
2022-11-13T11:29:53.239Z,8.68
2022-11-13T11:32:50.745Z,8.71
2022-11-13T11:35:43.678Z,8.71
2022-11-13T11:38:47.107Z,8.62
2022-11-13T11:41:42.539Z,8.77
2022-11-13T11:44:39.511Z,8.86
2022-11-13T11:47:25.435Z,8.84
2022-11-13T11:50:13.738Z,8.82
2022-11-13T11:53:15.239Z,8.82
2022-11-13T11:56:23.413Z,8.80
2022-11-13T11:59:14.351Z,8.74
2022-11-13T12:02:30.811Z,8.74
2022-11-13T12:05:19.886Z,8.84
2022-11-13T12:08:14.518Z,9.09
2022-11-13T12:11:06.315Z,9.37
2022-11-13T12:14:10.365Z,9.56
2022-11-13T12:17:17.439Z,9.58
2022-11-13T12:20:19.314Z,9.59
2022-11-13T12:23:12.748Z,9.64
2022-11-13T12:26:04.343Z,9.80
2022-11-13T12:29:20.928Z,9.83
2022-11-13T12:32:12.172Z,9.79
2022-11-13T12:35:02.650Z,9.84
2022-11-13T12:38:13.376Z,9.91
2022-11-13T12:41:17.440Z,10.03
2022-11-13T12:44:11.663Z,10.10
2022-11-13T12:47:00.662Z,10.19
2022-11-13T12:49:46.067Z,10.23
2022-11-13T12:52:31.212Z,10.23
2022-11-13T12:55:28.039Z,10.31
2022-11-13T12:58:26.365Z,10.33
2022-11-13T13:01:11.659Z,10.25
2022-11-13T13:04:33.480Z,10.28
2022-11-13T13:07:51.364Z,10.30
2022-11-13T13:10:54.625Z,10.26
2022-11-13T13:13:51.784Z,10.26
2022-11-13T13:16:36.900Z,10.31
2022-11-13T13:25:33.981Z,10.68
2022-11-13T13:34:46.987Z,11.38
2022-11-13T13:37:39.900Z,11.50
2022-11-13T13:40:30.326Z,11.56
2022-11-13T13:43:37.418Z,11.61
2022-11-13T13:46:25.175Z,11.29
2022-11-13T13:49:16.910Z,11.38
2022-11-13T13:52:02.637Z,11.28
2022-11-13T13:54:48.221Z,11.36
2022-11-13T13:57:34.579Z,11.43
2022-11-13T14:00:24.343Z,11.34
2022-11-13T14:03:19.834Z,11.41
2022-11-13T14:06:20.335Z,11.38
2022-11-13T14:09:10.627Z,11.36
2022-11-13T14:12:09.223Z,11.59
2022-11-13T14:14:55.417Z,11.66
2022-11-13T14:17:40.920Z,11.64
2022-11-13T14:20:26.023Z,11.57
2022-11-13T14:23:24.224Z,11.59
2022-11-13T14:26:11.920Z,11.59
2022-11-13T14:32:14.861Z,11.70
2022-11-13T14:35:02.687Z,11.69
2022-11-13T14:37:48.699Z,11.69
2022-11-13T14:40:35.685Z,11.75
2022-11-13T14:43:24.551Z,11.64
2022-11-13T14:46:30.051Z,11.69
2022-11-13T14:49:37.183Z,11.69
2022-11-13T14:52:27.974Z,11.44
2022-11-13T14:55:25.610Z,11.32
2022-11-13T14:58:14.846Z,11.23
2022-11-13T15:01:21.372Z,11.24
2022-11-13T15:04:06.955Z,11.03
2022-11-13T15:06:56.131Z,11.01
2022-11-13T15:09:41.246Z,11.10
2022-11-13T15:12:27.082Z,10.91
2022-11-13T15:15:15.355Z,10.73
2022-11-13T15:18:01.723Z,10.67
2022-11-13T15:20:47.527Z,10.56
2022-11-13T15:23:34.971Z,10.53
2022-11-13T15:26:20.146Z,10.37
2022-11-13T15:44:19.808Z,9.66
2022-11-13T15:47:21.361Z,9.54
2022-11-13T15:50:16.094Z,9.50
2022-11-13T15:53:05.416Z,9.33
2022-11-13T15:55:50.887Z,9.23
2022-11-13T15:58:35.852Z,9.10
2022-11-13T16:01:21.449Z,9.03
2022-11-13T16:04:06.767Z,8.96
2022-11-13T16:06:52.034Z,8.86
2022-11-13T16:09:37.331Z,8.74
2022-11-13T16:12:22.516Z,8.67
2022-11-13T16:15:08.275Z,8.57
2022-11-13T16:17:54.891Z,8.46
2022-11-13T16:20:39.959Z,8.36
2022-11-13T16:23:25.121Z,8.30
2022-11-13T16:26:21.562Z,8.25
2022-11-13T16:29:19.200Z,8.18
2022-11-13T16:32:04.152Z,8.14
2022-11-13T16:34:49.023Z,8.07
2022-11-13T16:37:33.999Z,7.98
2022-11-13T16:40:24.628Z,7.94
2022-11-13T16:43:10.211Z,7.88
2022-11-13T16:45:55.327Z,7.83
2022-11-13T16:48:41.788Z,7.77
2022-11-13T16:51:26.842Z,7.73
2022-11-13T16:54:12.819Z,7.72
2022-11-13T16:57:00.969Z,7.66
2022-11-13T16:59:46.147Z,7.61
2022-11-13T17:02:31.095Z,7.58
2022-11-13T17:05:17.114Z,7.57
2022-11-13T17:08:02.799Z,7.53
2022-11-13T17:10:57.778Z,7.51
2022-11-13T17:13:42.835Z,7.50
2022-11-13T17:16:29.851Z,7.49
2022-11-13T17:19:15.050Z,7.46
2022-11-13T17:22:00.024Z,7.43
2022-11-13T17:24:45.215Z,7.35
2022-11-13T17:27:30.330Z,7.25
2022-11-13T17:30:15.275Z,7.24
2022-11-13T17:33:00.438Z,7.18
2022-11-13T17:35:48.212Z,7.13
2022-11-13T17:38:33.169Z,7.11
2022-11-13T17:41:18.542Z,7.10
2022-11-13T17:44:04.021Z,7.07
2022-11-13T17:46:49.388Z,7.04
2022-11-13T17:49:34.563Z,7.01
2022-11-13T17:52:19.656Z,6.94
2022-11-13T17:55:12.914Z,6.92
2022-11-13T17:58:01.234Z,6.85
2022-11-13T18:00:46.103Z,6.83
2022-11-13T18:03:31.904Z,6.79
2022-11-13T18:06:19.678Z,6.77
2022-11-13T18:09:04.904Z,6.74
2022-11-13T18:11:49.949Z,6.71
2022-11-13T18:14:34.854Z,6.67
2022-11-13T18:17:20.786Z,6.66
2022-11-13T18:20:06.172Z,6.61
2022-11-13T18:22:51.399Z,6.61
2022-11-13T18:25:39.434Z,6.62
2022-11-13T18:28:24.784Z,6.59
2022-11-13T18:31:15.787Z,6.56
2022-11-13T18:34:02.524Z,6.53
2022-11-13T18:36:47.451Z,6.49
2022-11-13T18:39:32.383Z,6.51
2022-11-13T18:42:17.448Z,6.42
2022-11-13T18:45:06.013Z,6.38
2022-11-13T18:47:51.223Z,6.37
2022-11-13T18:50:36.031Z,6.37
2022-11-13T18:53:21.120Z,6.36
2022-11-13T18:56:12.919Z,6.34
2022-11-13T18:58:59.156Z,6.34
2022-11-13T19:01:44.448Z,6.32
2022-11-13T19:04:29.553Z,6.33
2022-11-13T19:07:14.803Z,6.36
2022-11-13T19:09:59.840Z,6.39
2022-11-13T19:12:44.814Z,6.40
2022-11-13T19:15:29.849Z,6.40
2022-11-13T19:18:15.204Z,6.41
2022-11-13T19:21:08.051Z,6.46
2022-11-13T19:23:53.378Z,6.52
2022-11-13T19:26:38.959Z,6.59
2022-11-13T19:29:24.106Z,6.67
2022-11-13T19:32:09.095Z,6.73
2022-11-13T19:34:54.294Z,6.78
2022-11-13T19:37:39.140Z,6.85
2022-11-13T19:40:24.076Z,6.94
2022-11-13T19:43:09.099Z,6.86
2022-11-13T19:45:53.977Z,6.72
2022-11-13T19:48:40.920Z,6.56
2022-11-13T19:51:26.394Z,6.48
2022-11-13T19:54:11.575Z,6.40
2022-11-13T19:56:56.708Z,6.38
2022-11-13T19:59:41.669Z,6.36
2022-11-13T20:02:26.600Z,6.33
2022-11-13T20:05:11.956Z,6.36
2022-11-13T20:07:58.307Z,6.36
2022-11-13T20:10:43.537Z,6.38
2022-11-13T20:13:31.128Z,6.38
2022-11-13T20:16:17.271Z,6.40
2022-11-13T20:19:02.061Z,6.44
2022-11-13T20:21:47.042Z,6.51
2022-11-13T20:24:32.170Z,6.54
2022-11-13T20:27:17.475Z,6.55
2022-11-13T20:30:02.503Z,6.60
2022-11-13T20:32:47.402Z,6.66
2022-11-13T20:35:32.299Z,6.70
2022-11-13T20:38:17.246Z,6.73
2022-11-13T20:41:04.615Z,6.75
2022-11-13T20:43:50.326Z,6.79
2022-11-13T20:46:35.543Z,6.81
2022-11-13T20:49:20.787Z,6.81
2022-11-13T20:52:07.013Z,6.84
2022-11-13T20:54:52.312Z,6.84
2022-11-13T20:57:40.882Z,6.82
2022-11-13T21:00:26.073Z,6.84
2022-11-13T21:03:11.371Z,6.87
2022-11-13T21:05:56.366Z,6.86
2022-11-13T21:08:41.910Z,6.85
2022-11-13T21:11:27.029Z,6.82
2022-11-13T21:14:12.246Z,6.78
2022-11-13T21:16:57.143Z,6.76
2022-11-13T21:19:42.072Z,6.68
2022-11-13T21:22:26.978Z,6.59
2022-11-13T21:25:12.079Z,6.62
2022-11-13T21:27:56.893Z,6.62
2022-11-13T21:30:41.606Z,6.63
2022-11-13T21:33:26.952Z,6.71
2022-11-13T21:36:13.121Z,6.79
2022-11-13T21:38:58.344Z,6.86
2022-11-13T21:41:43.533Z,6.87
2022-11-13T21:44:28.307Z,6.91
2022-11-13T21:47:13.541Z,7.05
2022-11-13T21:49:58.443Z,7.23
2022-11-13T21:52:43.568Z,7.31
2022-11-13T21:55:29.125Z,7.31
2022-11-13T21:58:14.727Z,7.30
2022-11-13T22:01:00.252Z,7.31
2022-11-13T22:03:45.442Z,7.28
2022-11-13T22:06:32.007Z,7.26
2022-11-13T22:09:23.299Z,7.19
2022-11-13T22:12:09.818Z,7.17
2022-11-13T22:14:54.947Z,7.15
2022-11-13T22:17:41.691Z,7.11
2022-11-13T22:20:26.797Z,7.04
2022-11-13T22:23:11.899Z,6.96
2022-11-13T22:26:04.999Z,6.93
2022-11-13T22:28:50.661Z,6.94
2022-11-13T22:31:37.161Z,6.88
2022-11-13T22:34:22.055Z,6.76
2022-11-13T22:37:07.043Z,6.61
2022-11-13T22:39:52.107Z,6.47
2022-11-13T22:42:37.108Z,6.36
2022-11-13T22:45:24.429Z,6.32
2022-11-13T22:48:11.737Z,6.28
2022-11-13T22:51:02.447Z,6.21
2022-11-13T22:53:52.921Z,6.11
2022-11-13T22:56:41.066Z,5.98
2022-11-13T22:59:27.434Z,5.88
2022-11-13T23:02:12.820Z,5.85
2022-11-13T23:04:57.859Z,5.75
2022-11-13T23:07:42.860Z,5.71
2022-11-13T23:10:27.834Z,5.69
2022-11-13T23:13:13.066Z,5.67
2022-11-13T23:15:58.712Z,5.61
2022-11-13T23:18:43.535Z,5.61
2022-11-13T23:21:30.265Z,5.53
2022-11-13T23:24:15.442Z,5.51
2022-11-13T23:27:00.787Z,5.44
2022-11-13T23:29:49.917Z,5.36
2022-11-13T23:36:39.491Z,5.26
2022-11-13T23:39:24.631Z,5.18
2022-11-13T23:42:23.970Z,5.13
2022-11-13T23:45:18.295Z,5.08
2022-11-13T23:48:06.307Z,5.00
2022-11-13T23:50:55.395Z,4.97
2022-11-13T23:53:40.166Z,4.99
2022-11-13T23:56:25.278Z,4.97
2022-11-13T23:59:10.722Z,4.96
